createdAt,value
2022-07-26T00:01:04.987Z,13.95
2022-07-26T00:06:11.235Z,15.13
2022-07-26T00:08:44.703Z,16.15
2022-07-26T00:11:18.357Z,15.63
2022-07-26T00:16:25.525Z,17.12
2022-07-26T00:18:58.517Z,15.93
2022-07-26T00:21:31.427Z,17.77
2022-07-26T00:24:05.957Z,16.07
2022-07-26T00:26:39.610Z,16.17
2022-07-26T00:29:12.440Z,17.15
2022-07-26T00:31:45.342Z,16.57
2022-07-26T00:34:18.045Z,15.55
2022-07-26T00:36:50.916Z,16.75
2022-07-26T00:39:24.690Z,16.17
2022-07-26T00:41:57.598Z,16.47
2022-07-26T00:44:44.460Z,16.27
2022-07-26T00:47:19.112Z,15.98
2022-07-26T00:49:52.188Z,16.33
2022-07-26T00:52:24.962Z,17.12
2022-07-26T00:54:57.632Z,17.25
2022-07-26T00:57:31.778Z,16.55
2022-07-26T01:00:09.151Z,17.12
2022-07-26T01:02:42.919Z,16.67
2022-07-26T01:05:16.166Z,16.82
2022-07-26T01:07:51.508Z,16.27
2022-07-26T01:10:24.413Z,15.88
2022-07-26T01:12:57.299Z,17.35
2022-07-26T01:15:31.857Z,15.83
2022-07-26T01:18:04.742Z,15.55
2022-07-26T01:20:38.340Z,16.00
2022-07-26T01:23:11.619Z,15.85
2022-07-26T01:25:46.027Z,15.45
2022-07-26T01:28:20.488Z,15.68
2022-07-26T01:30:53.935Z,16.67
2022-07-26T01:33:28.358Z,16.75
2022-07-26T01:36:02.555Z,16.50
2022-07-26T01:38:35.535Z,15.60
2022-07-26T01:41:08.350Z,16.20
2022-07-26T01:43:41.914Z,16.30
2022-07-26T01:46:15.668Z,15.95
2022-07-26T01:48:48.575Z,15.60
2022-07-26T01:51:21.670Z,16.52
2022-07-26T01:53:54.514Z,16.93
2022-07-26T01:56:27.980Z,16.12
2022-07-26T01:59:01.202Z,15.93
2022-07-26T02:01:39.087Z,17.92
2022-07-26T02:04:12.627Z,17.32
2022-07-26T02:06:45.409Z,18.12
2022-07-26T02:09:18.142Z,18.75
2022-07-26T02:11:52.276Z,18.17
2022-07-26T02:14:25.580Z,20.10
2022-07-26T02:17:00.411Z,19.55
2022-07-26T02:19:34.076Z,20.37
2022-07-26T02:22:07.380Z,18.73
2022-07-26T02:24:40.324Z,19.73
2022-07-26T02:27:13.107Z,18.57
2022-07-26T02:29:46.085Z,18.87
2022-07-26T02:32:18.916Z,18.12
2022-07-26T02:34:51.759Z,17.70
2022-07-26T02:37:24.601Z,16.90
2022-07-26T02:39:57.396Z,17.62
2022-07-26T02:42:30.414Z,16.95
2022-07-26T02:45:03.205Z,17.35
2022-07-26T02:47:36.334Z,17.20
2022-07-26T02:50:09.741Z,16.17
2022-07-26T02:52:42.523Z,15.40
2022-07-26T02:55:16.309Z,15.05
2022-07-26T02:57:49.615Z,14.75
2022-07-26T03:00:26.051Z,15.15
2022-07-26T03:02:59.211Z,15.60
2022-07-26T03:05:32.361Z,15.85
2022-07-26T03:08:05.312Z,15.72
2022-07-26T03:10:39.128Z,14.75
2022-07-26T03:13:11.939Z,16.60
2022-07-26T03:15:44.765Z,16.25
2022-07-26T03:18:17.580Z,16.45
2022-07-26T03:20:50.660Z,16.85
2022-07-26T03:23:23.494Z,16.37
2022-07-26T03:25:56.294Z,16.05
2022-07-26T03:28:34.270Z,17.17
2022-07-26T03:31:07.275Z,17.52
2022-07-26T03:33:40.657Z,17.27
2022-07-26T03:36:15.400Z,17.17
2022-07-26T03:38:47.939Z,18.02
2022-07-26T03:41:20.655Z,17.40
2022-07-26T03:43:53.476Z,18.75
2022-07-26T03:46:26.639Z,16.27
2022-07-26T03:48:59.555Z,17.30
2022-07-26T03:51:34.242Z,16.23
2022-07-26T03:54:07.605Z,14.75
2022-07-26T03:56:41.709Z,16.17
2022-07-26T03:59:14.550Z,15.60
2022-07-26T04:01:48.188Z,14.87
2022-07-26T04:04:25.308Z,15.08
2022-07-26T04:06:56.962Z,14.38
2022-07-26T04:09:29.704Z,14.28
2022-07-26T04:12:02.548Z,13.98
2022-07-26T04:14:35.256Z,14.10
2022-07-26T04:17:08.186Z,15.60
2022-07-26T04:19:41.111Z,15.48
2022-07-26T04:22:14.006Z,14.95
2022-07-26T04:24:46.689Z,16.20
2022-07-26T04:27:19.571Z,15.50
2022-07-26T04:29:52.382Z,16.27
2022-07-26T04:32:25.557Z,16.85
2022-07-26T04:34:58.369Z,15.48
2022-07-26T04:37:32.755Z,15.30
2022-07-26T04:40:06.329Z,15.10
2022-07-26T04:42:39.584Z,20.05
2022-07-26T04:45:13.609Z,16.47
2022-07-26T04:47:49.519Z,15.28
2022-07-26T04:50:24.208Z,14.38
2022-07-26T04:52:57.510Z,13.90
2022-07-26T04:55:30.832Z,17.30
2022-07-26T04:58:03.725Z,23.55
2022-07-26T05:00:51.328Z,28.60
2022-07-26T05:03:11.691Z,29.48
2022-07-26T05:05:44.659Z,31.65
2022-07-26T05:08:17.580Z,31.90
2022-07-26T05:10:55.580Z,31.70
2022-07-26T05:13:30.633Z,31.30
2022-07-26T05:16:01.765Z,30.68
2022-07-26T05:18:46.040Z,34.43
2022-07-26T05:21:09.241Z,34.30
2022-07-26T05:23:42.131Z,37.10
2022-07-26T05:26:14.924Z,33.73
2022-07-26T05:28:47.717Z,36.35
2022-07-26T05:31:20.481Z,36.30
2022-07-26T05:33:53.267Z,35.78
2022-07-26T05:36:26.179Z,37.08
2022-07-26T05:38:59.401Z,37.00
2022-07-26T05:41:32.142Z,36.65
2022-07-26T05:44:05.268Z,34.63
2022-07-26T05:46:38.881Z,36.00
2022-07-26T05:49:11.751Z,33.90
2022-07-26T05:51:44.620Z,35.73
2022-07-26T05:54:17.485Z,35.33
2022-07-26T05:56:51.875Z,35.28
2022-07-26T05:59:24.737Z,32.70
2022-07-26T06:01:57.604Z,32.33
2022-07-26T06:04:30.480Z,33.25
2022-07-26T06:07:03.258Z,35.52
2022-07-26T06:09:36.718Z,36.95
2022-07-26T06:12:09.669Z,34.73
2022-07-26T06:14:42.657Z,34.13
2022-07-26T06:17:15.412Z,34.27
2022-07-26T06:19:48.361Z,37.23
2022-07-26T06:22:21.319Z,37.67
2022-07-26T06:24:54.035Z,36.15
2022-07-26T06:27:26.957Z,35.30
2022-07-26T06:29:59.807Z,33.15
2022-07-26T06:32:32.673Z,31.75
2022-07-26T06:35:05.623Z,30.37
2022-07-26T06:37:40.738Z,29.72
2022-07-26T06:40:14.234Z,31.02
2022-07-26T06:42:47.167Z,29.60
2022-07-26T06:45:20.077Z,28.23
2022-07-26T06:47:52.888Z,26.62
2022-07-26T06:50:25.989Z,21.48
2022-07-26T06:52:58.783Z,17.52
2022-07-26T06:55:31.732Z,15.88
2022-07-26T06:58:04.494Z,14.47
2022-07-26T07:00:37.354Z,13.85
2022-07-26T07:03:10.399Z,13.85
2022-07-26T07:05:47.919Z,15.08
2022-07-26T07:08:18.837Z,14.43
2022-07-26T07:10:56.065Z,12.45
2022-07-26T07:13:28.886Z,12.13
2022-07-26T07:16:01.964Z,13.70
2022-07-26T07:18:35.706Z,14.05
2022-07-26T07:21:08.698Z,14.23
2022-07-26T07:23:42.149Z,12.93
2022-07-26T07:26:15.034Z,12.47
2022-07-26T07:28:48.564Z,15.70
2022-07-26T07:31:25.907Z,15.25
2022-07-26T07:33:56.614Z,12.30
2022-07-26T07:36:30.236Z,11.68
2022-07-26T07:39:06.687Z,11.88
2022-07-26T07:41:38.565Z,13.22
2022-07-26T07:44:11.808Z,16.93
2022-07-26T07:46:45.441Z,15.53
2022-07-26T07:49:18.505Z,13.72
2022-07-26T07:51:51.359Z,13.65
2022-07-26T07:54:24.231Z,12.75
2022-07-26T07:56:58.079Z,11.93
2022-07-26T07:59:30.878Z,11.68
2022-07-26T08:02:03.879Z,11.45
2022-07-26T08:04:37.117Z,11.38
2022-07-26T08:07:10.116Z,12.07
2022-07-26T08:09:43.334Z,11.50
2022-07-26T08:12:17.661Z,10.90
2022-07-26T08:14:50.599Z,11.40
2022-07-26T08:17:23.782Z,13.93
2022-07-26T08:20:00.376Z,13.93
2022-07-26T08:22:33.453Z,12.73
2022-07-26T08:25:07.487Z,12.23
2022-07-26T08:27:41.354Z,12.13
2022-07-26T08:30:14.975Z,11.70
2022-07-26T08:32:47.827Z,12.40
2022-07-26T08:35:22.247Z,11.85
2022-07-26T08:40:27.185Z,12.10
2022-07-26T08:43:00.379Z,11.07
2022-07-26T08:45:34.163Z,11.03
2022-07-26T08:48:17.165Z,11.28
2022-07-26T08:50:43.511Z,9.88
2022-07-26T08:53:17.044Z,9.28
2022-07-26T08:56:06.579Z,9.65
2022-07-26T08:58:25.750Z,10.05
2022-07-26T09:01:13.151Z,8.38
2022-07-26T09:03:48.302Z,8.98
2022-07-26T09:06:26.273Z,9.43
2022-07-26T09:09:03.531Z,10.13
2022-07-26T09:11:36.591Z,10.03
2022-07-26T09:16:43.162Z,7.97
2022-07-26T09:19:22.663Z,6.83
2022-07-26T09:21:58.361Z,7.10
2022-07-26T09:24:44.214Z,7.45
2022-07-26T09:27:19.235Z,7.00
2022-07-26T09:29:55.294Z,8.33
2022-07-26T09:32:28.821Z,7.80
2022-07-26T09:37:55.248Z,7.92
2022-07-26T09:40:36.206Z,7.62
2022-07-26T09:43:10.041Z,11.43
2022-07-26T09:45:44.341Z,7.53
2022-07-26T09:48:22.561Z,6.53
2022-07-26T09:50:55.331Z,6.67
2022-07-26T09:53:28.916Z,6.95
2022-07-26T09:56:01.843Z,6.47
2022-07-26T09:58:35.370Z,7.45
2022-07-26T10:01:10.075Z,6.47
2022-07-26T10:03:43.092Z,7.75
2022-07-26T10:06:16.398Z,6.37
2022-07-26T10:08:49.724Z,6.45
2022-07-26T10:11:23.013Z,6.28
2022-07-26T10:13:57.869Z,5.10
2022-07-26T10:16:33.339Z,4.65
2022-07-26T10:19:08.307Z,6.05
2022-07-26T10:21:41.639Z,5.37
2022-07-26T10:24:29.172Z,3.80
2022-07-26T10:27:02.118Z,4.50
2022-07-26T10:29:35.269Z,3.40
2022-07-26T10:32:16.549Z,3.40
2022-07-26T10:34:50.862Z,4.20
2022-07-26T10:37:28.319Z,4.20
2022-07-26T10:40:20.178Z,4.22
2022-07-26T10:42:53.559Z,4.80
2022-07-26T10:45:27.363Z,5.25
2022-07-26T10:48:22.930Z,4.97
2022-07-26T10:50:56.519Z,4.30
2022-07-26T10:53:30.280Z,4.42
2022-07-26T10:56:03.416Z,4.90
2022-07-26T10:58:45.097Z,4.35
2022-07-26T11:01:18.641Z,6.92
2022-07-26T11:03:51.783Z,5.62
2022-07-26T11:06:26.248Z,4.75
2022-07-26T11:08:59.183Z,4.53
2022-07-26T11:11:34.166Z,4.45
2022-07-26T11:14:14.114Z,4.80
2022-07-26T11:16:53.609Z,4.10
2022-07-26T11:19:27.833Z,4.42
2022-07-26T11:22:02.144Z,4.33
2022-07-26T11:24:34.992Z,4.65
2022-07-26T11:27:08.161Z,4.15
2022-07-26T11:29:42.087Z,4.12
2022-07-26T11:32:24.038Z,4.15
2022-07-26T11:35:04.189Z,4.30
2022-07-26T11:37:37.798Z,4.40
2022-07-26T11:40:11.809Z,4.45
2022-07-26T11:42:45.631Z,6.30
2022-07-26T11:45:19.648Z,4.60
2022-07-26T11:47:52.819Z,4.17
2022-07-26T11:50:25.831Z,4.25
2022-07-26T11:52:58.815Z,4.90
2022-07-26T11:55:32.929Z,4.42
2022-07-26T12:00:39.684Z,4.45
2022-07-26T12:03:12.865Z,5.03
2022-07-26T12:05:48.660Z,5.30
2022-07-26T12:08:21.587Z,4.35
2022-07-26T12:10:57.777Z,4.20
2022-07-26T12:13:55.424Z,4.10
2022-07-26T12:16:07.552Z,4.70
2022-07-26T12:18:41.001Z,4.60
2022-07-26T12:21:15.192Z,5.72
2022-07-26T12:23:51.329Z,6.85
2022-07-26T12:26:31.021Z,7.22
2022-07-26T12:29:22.875Z,6.80
2022-07-26T12:32:12.871Z,5.78
2022-07-26T12:35:09.963Z,5.95
2022-07-26T12:37:53.293Z,4.92
2022-07-26T12:40:29.882Z,4.83
2022-07-26T12:43:03.808Z,4.70
2022-07-26T12:48:13.076Z,4.20
2022-07-26T12:53:17.630Z,4.55
2022-07-26T12:55:50.423Z,4.40
2022-07-26T12:58:23.361Z,4.42
2022-07-26T13:00:56.269Z,4.45
2022-07-26T13:03:29.174Z,4.62
2022-07-26T13:06:03.653Z,4.30
2022-07-26T13:08:37.021Z,4.55
2022-07-26T13:11:11.060Z,5.12
2022-07-26T13:13:44.003Z,4.63
2022-07-26T13:16:17.376Z,4.60
2022-07-26T13:18:50.532Z,4.53
2022-07-26T13:21:23.274Z,3.37
2022-07-26T13:23:56.535Z,3.60
2022-07-26T13:26:29.417Z,4.03
2022-07-26T13:29:03.483Z,4.30
2022-07-26T13:31:36.732Z,3.50
2022-07-26T13:34:09.857Z,3.50
2022-07-26T13:36:43.195Z,3.92
2022-07-26T13:39:16.164Z,3.00
2022-07-26T13:41:48.938Z,3.08
2022-07-26T13:44:24.338Z,3.60
2022-07-26T13:46:57.149Z,3.90
2022-07-26T13:49:31.665Z,3.80
2022-07-26T13:52:05.112Z,4.58
2022-07-26T13:54:38.377Z,4.20
2022-07-26T13:57:11.336Z,4.35
2022-07-26T13:59:44.273Z,4.40
2022-07-26T14:02:17.234Z,5.33
2022-07-26T14:04:51.505Z,4.65
2022-07-26T14:07:24.337Z,5.15
2022-07-26T14:09:57.244Z,5.28
2022-07-26T14:12:30.669Z,4.40
2022-07-26T14:15:07.775Z,4.53
2022-07-26T14:17:39.244Z,4.17
2022-07-26T14:20:12.976Z,4.97
2022-07-26T14:22:46.466Z,5.50
2022-07-26T14:25:19.992Z,5.45
2022-07-26T14:27:56.785Z,5.83
2022-07-26T14:30:29.797Z,5.30
2022-07-26T14:33:03.158Z,5.20
2022-07-26T14:35:36.728Z,5.55
2022-07-26T14:38:10.775Z,6.33
2022-07-26T14:40:43.867Z,5.25
2022-07-26T14:43:16.954Z,5.95
2022-07-26T14:45:50.692Z,5.13
2022-07-26T14:48:51.762Z,4.97
2022-07-26T14:51:09.212Z,6.05
2022-07-26T14:53:33.793Z,6.62
2022-07-26T14:56:06.911Z,5.93
2022-07-26T14:58:40.610Z,6.40
2022-07-26T15:01:13.759Z,6.12
2022-07-26T15:03:46.637Z,6.47
2022-07-26T15:06:19.713Z,5.28
2022-07-26T15:08:52.962Z,5.47
2022-07-26T15:11:25.774Z,5.08
2022-07-26T15:14:05.441Z,5.03
2022-07-26T15:16:35.895Z,5.15
2022-07-26T15:19:08.772Z,5.22
2022-07-26T15:21:42.151Z,5.22
2022-07-26T15:24:16.523Z,5.67
2022-07-26T15:26:49.801Z,5.97
2022-07-26T15:29:23.058Z,5.67
2022-07-26T15:31:56.068Z,4.97
2022-07-26T15:34:29.301Z,5.33
2022-07-26T15:37:02.923Z,4.60
2022-07-26T15:39:36.348Z,4.50
2022-07-26T15:42:10.058Z,4.37
2022-07-26T15:44:42.964Z,4.45
2022-07-26T15:47:43.391Z,4.72
2022-07-26T15:49:51.126Z,4.33
2022-07-26T15:52:24.127Z,4.20
2022-07-26T15:54:57.321Z,4.40
2022-07-26T15:57:30.249Z,4.70
2022-07-26T16:00:11.529Z,4.90
2022-07-26T16:02:40.058Z,4.97
2022-07-26T16:05:13.314Z,5.05
2022-07-26T16:07:48.420Z,5.80
2022-07-26T16:10:21.290Z,6.10
2022-07-26T16:12:54.306Z,6.75
2022-07-26T16:15:27.901Z,6.65
2022-07-26T16:18:06.180Z,5.80
2022-07-26T16:20:38.110Z,6.03
2022-07-26T16:23:11.313Z,5.58
2022-07-26T16:25:44.132Z,4.80
2022-07-26T16:28:17.322Z,5.47
2022-07-26T16:30:51.696Z,4.60
2022-07-26T16:33:24.953Z,5.37
2022-07-26T16:36:00.598Z,4.60
2022-07-26T16:38:32.647Z,5.55
2022-07-26T16:41:05.457Z,4.90
2022-07-26T16:43:38.245Z,5.25
2022-07-26T16:46:11.227Z,5.20
2022-07-26T16:48:44.438Z,5.97
2022-07-26T16:51:17.668Z,5.28
2022-07-26T16:53:51.826Z,5.20
2022-07-26T16:58:56.674Z,5.75
2022-07-26T17:01:29.913Z,5.47
2022-07-26T17:04:02.799Z,8.68
2022-07-26T17:06:36.007Z,7.03
2022-07-26T17:09:15.507Z,7.80
2022-07-26T17:11:43.976Z,7.03
2022-07-26T17:14:18.207Z,6.75
2022-07-26T17:16:51.188Z,7.20
2022-07-26T17:19:24.266Z,7.95
2022-07-26T17:21:57.979Z,7.78
2022-07-26T17:24:31.264Z,10.40
2022-07-26T17:27:04.370Z,8.40
2022-07-26T17:29:37.791Z,7.67
2022-07-26T17:32:10.884Z,7.53
2022-07-26T17:34:44.434Z,13.60
2022-07-26T17:37:17.465Z,6.80
2022-07-26T17:39:53.941Z,7.40
2022-07-26T17:42:27.364Z,7.58
2022-07-26T17:45:00.243Z,7.55
2022-07-26T17:47:33.332Z,8.58
2022-07-26T17:52:43.938Z,8.00
2022-07-26T17:55:18.935Z,7.78
2022-07-26T17:57:53.952Z,8.13
2022-07-26T18:00:28.967Z,7.55
2022-07-26T18:03:02.200Z,8.10
2022-07-26T18:05:41.085Z,7.70
2022-07-26T18:08:11.927Z,9.10
2022-07-26T18:10:50.570Z,8.50
2022-07-26T18:13:19.962Z,7.80
2022-07-26T18:15:54.775Z,8.15
2022-07-26T18:18:27.671Z,8.30
2022-07-26T18:21:01.379Z,7.58
2022-07-26T18:23:34.417Z,8.25
2022-07-26T18:26:07.306Z,7.58
2022-07-26T18:28:40.623Z,8.48
2022-07-26T18:31:15.420Z,7.58
2022-07-26T18:33:49.009Z,7.85
2022-07-26T18:36:22.548Z,8.48
2022-07-26T18:38:55.346Z,8.90
2022-07-26T18:41:34.255Z,8.43
2022-07-26T18:44:07.805Z,8.33
2022-07-26T18:46:40.859Z,8.15
2022-07-26T18:49:16.107Z,7.72
2022-07-26T18:51:49.503Z,8.53
2022-07-26T18:54:22.479Z,8.93
2022-07-26T18:56:57.520Z,8.03
2022-07-26T18:59:31.386Z,9.30
2022-07-26T19:02:04.451Z,9.08
2022-07-26T19:04:38.051Z,8.23
2022-07-26T19:07:11.164Z,8.80
2022-07-26T19:09:44.764Z,8.93
2022-07-26T19:12:17.904Z,10.10
2022-07-26T19:14:50.708Z,10.38
2022-07-26T19:17:24.772Z,10.93
2022-07-26T19:19:59.177Z,11.18
2022-07-26T19:22:32.129Z,12.10
2022-07-26T19:25:09.793Z,11.73
2022-07-26T19:27:43.687Z,11.33
2022-07-26T19:30:16.687Z,9.75
2022-07-26T19:32:49.952Z,9.80
2022-07-26T19:35:22.929Z,10.25
2022-07-26T19:37:56.951Z,9.68
2022-07-26T19:40:31.042Z,9.30
2022-07-26T19:43:03.934Z,9.65
2022-07-26T19:45:36.777Z,9.15
2022-07-26T19:48:10.124Z,8.65
2022-07-26T19:50:43.023Z,7.80
2022-07-26T19:53:16.098Z,8.00
2022-07-26T19:55:48.888Z,7.72
2022-07-26T19:58:26.981Z,7.20
2022-07-26T20:00:56.911Z,7.33
2022-07-26T20:03:30.157Z,6.85
2022-07-26T20:06:02.814Z,7.83
2022-07-26T20:08:36.638Z,7.30
2022-07-26T20:11:11.404Z,7.25
2022-07-26T20:13:45.356Z,7.62
2022-07-26T20:16:19.804Z,7.28
2022-07-26T20:18:52.569Z,6.62
2022-07-26T20:21:25.298Z,6.67
2022-07-26T20:23:58.218Z,6.62
2022-07-26T20:26:31.439Z,6.60
2022-07-26T20:29:07.528Z,6.80
2022-07-26T20:31:40.749Z,6.75
2022-07-26T20:34:13.739Z,6.65
2022-07-26T20:36:47.258Z,6.13
2022-07-26T20:39:20.479Z,5.77
2022-07-26T20:41:53.349Z,6.35
2022-07-26T20:44:28.584Z,6.10
2022-07-26T20:47:01.650Z,7.45
2022-07-26T20:49:34.999Z,6.72
2022-07-26T20:52:09.405Z,6.75
2022-07-26T20:54:42.257Z,6.65
2022-07-26T20:57:15.245Z,7.40
2022-07-26T20:59:48.414Z,6.50
2022-07-26T21:02:21.414Z,7.33
2022-07-26T21:04:55.811Z,6.60
2022-07-26T21:07:56.546Z,6.90
2022-07-26T21:10:05.723Z,8.80
2022-07-26T21:12:38.814Z,8.55
2022-07-26T21:15:12.403Z,8.68
2022-07-26T21:17:45.904Z,8.75
2022-07-26T21:20:19.277Z,9.45
2022-07-26T21:22:52.259Z,8.30
2022-07-26T21:25:25.225Z,9.20
2022-07-26T21:27:58.771Z,8.20
2022-07-26T21:30:31.527Z,8.75
2022-07-26T21:33:04.491Z,9.53
2022-07-26T21:35:38.906Z,8.55
2022-07-26T21:38:11.646Z,9.18
2022-07-26T21:40:44.635Z,8.98
2022-07-26T21:43:17.833Z,9.25
2022-07-26T21:45:50.816Z,9.55
2022-07-26T21:48:23.590Z,10.18
2022-07-26T21:50:56.552Z,9.78
2022-07-26T21:53:29.495Z,9.85
2022-07-26T21:56:02.502Z,10.05
2022-07-26T21:58:37.100Z,9.90
2022-07-26T22:01:12.857Z,9.78
2022-07-26T22:03:45.778Z,9.75
2022-07-26T22:06:19.140Z,9.78
2022-07-26T22:08:52.643Z,10.00
2022-07-26T22:11:25.621Z,9.73
2022-07-26T22:13:59.002Z,10.18
2022-07-26T22:16:32.518Z,10.63
2022-07-26T22:19:05.541Z,9.70
2022-07-26T22:21:40.018Z,10.23
2022-07-26T22:24:13.047Z,10.50
2022-07-26T22:26:46.647Z,12.00
2022-07-26T22:29:19.908Z,10.55
2022-07-26T22:31:52.803Z,11.45
2022-07-26T22:34:26.024Z,10.93
2022-07-26T22:36:58.893Z,10.98
2022-07-26T22:39:32.202Z,10.30
2022-07-26T22:42:15.465Z,11.03
2022-07-26T22:44:40.566Z,10.75
2022-07-26T22:47:13.339Z,10.10
2022-07-26T22:49:46.884Z,11.40
2022-07-26T22:52:20.032Z,11.00
2022-07-26T22:54:52.816Z,10.38
2022-07-26T22:57:26.077Z,11.40
2022-07-26T22:59:58.836Z,11.50
2022-07-26T23:02:31.750Z,9.95
2022-07-26T23:05:05.852Z,10.72
2022-07-26T23:07:40.794Z,11.45
2022-07-26T23:10:15.271Z,11.18
2022-07-26T23:12:48.784Z,11.18
2022-07-26T23:15:21.531Z,11.35
2022-07-26T23:17:54.302Z,10.53
2022-07-26T23:20:27.799Z,11.00
2022-07-26T23:23:00.816Z,10.45
2022-07-26T23:25:34.311Z,10.20
2022-07-26T23:28:07.927Z,11.35
2022-07-26T23:30:41.313Z,10.50
2022-07-26T23:33:14.080Z,10.20
2022-07-26T23:35:48.265Z,9.98
2022-07-26T23:38:21.700Z,11.48
2022-07-26T23:40:54.775Z,10.82
2022-07-26T23:43:27.850Z,11.18
2022-07-26T23:46:01.097Z,12.07
2022-07-26T23:48:34.045Z,11.22
2022-07-26T23:51:06.880Z,10.78
2022-07-26T23:53:40.302Z,10.82
2022-07-26T23:56:13.785Z,11.43
2022-07-26T23:58:47.574Z,11.30
